• Join FlightAware (Why Join?)
  • Login
  • US Flag 
02:30AM EDT


 

Airport Tracker/Info


-or-


 

Live Flight TrackerFlight Track Log ✈ N960DL ✈ 12-Apr-2013 ✈ KTLH - KATL

Flight Track Log - Related Links

Times and Time Zones

All times are in EDT time to prevent confusion due to time zone crossing. See the N960DL flight status page for this flight to view local times or setup timezone preferences in your user account.

Time Position Orientation Groundspeed Altitude Reporting Facility
EDT Latitude Longitude Course Direction KTS MPH feet Rate Location/Type
01:25PM 30.4658 -84.4447 344° North 224 258 5,000  Level Jacksonville Center
01:26PM 30.5347 -84.4361 North 253 291 8,000 2,700 Climbing Jacksonville Center
01:27PM 30.6394 -84.4233 North 287 330 10,500 2,460 Climbing Jacksonville Center
01:28PM 30.7436 -84.4297 357° North 336 387 13,000 2,760 Climbing Jacksonville Center
01:29PM 30.6081 -84.3785 346° North  Level FlightAware Approximate
01:29PM 30.8456 -84.4678 342° North 368 423 16,100  Level Jacksonville Center
01:30PM 30.7065 -84.4233 346° North  Level FlightAware Approximate
01:30PM 30.9536 -84.5036 344° North 385 443 18,500  Level Jacksonville Center
01:31PM 30.8186 -84.4562 344° North  Level FlightAware Approximate
01:31PM 31.0700 -84.5419 344° North 408 470 20,400  Level Jacksonville Center
01:32PM 31.1906 -84.5828 344° North 432 497 22,600 2,040 Climbing Jacksonville Center
01:33PM 31.3133 -84.6214 345° North 446 513 24,500 1,680 Climbing Jacksonville Center
01:35PM 31.5883 -84.7167 344° North 446 513 28,000 1,080 Climbing Atlanta Center
01:36PM 31.6967 -84.7517 345° North 426 490 28,000 -420 Level Atlanta Center
01:37PM 31.8028 -84.7892 343° North 408 470 27,200 -900 Descending Atlanta Center
01:38PM 31.9047 -84.8217 345° North 391 450 26,200 -1,380 Descending Atlanta Center
01:39PM 32.0089 -84.8569 344° North 384 442 24,500 -1,140 Descending Atlanta Center
01:40PM 32.1194 -84.8972 343° North 389 448 24,000 -540 Descending Atlanta Center
01:41PM 32.2297 -84.9325 345° North 401 461 23,500 -540 Descending Atlanta Center
01:42PM 32.3317 -84.9606 347° North 401 461 23,000 -840 Descending Atlanta Center
01:44PM 32.4029 -84.9796 347° North  Level FlightAware Approximate
01:44PM 32.5883 -84.9881 347° North 432 497 21,000  Level Atlanta Center
01:45PM 32.7072 -84.9967 357° North 438 504 21,000 -300 Level Atlanta Center
01:46PM 32.8303 -85.0128 354° North 438 504 20,500 -960 Descending Atlanta Center
01:47PM 32.9533 -85.0192 358° North 444 511 19,100 -1,920 Descending Atlanta Center
01:48PM 33.0703 -85.0278 356° North 432 497 16,700 -2,400 Descending Atlanta Center
01:49PM 33.1831 -85.0217 North 411 473 14,300 -1,800 Descending Atlanta Center
01:50PM 33.2692 -84.9258 43° Northeast 389 448 13,100 -1,140 Descending Atlanta Center
01:51PM 33.3450 -84.8197 49° Northeast 399 459 12,100 -720 Descending Atlanta Center
01:52PM 33.4000 -84.7500 47° Northeast 402 463 12,000  Descending Atlanta TRACON
01:53PM 33.4500 -84.6667 54° Northeast 333 383 12,100  Climbing Atlanta TRACON
01:54PM 33.5000 -84.6000 48° Northeast 284 327 12,100 -300 Level Atlanta TRACON
01:55PM 33.5500 -84.5167 54° Northeast 281 323 11,600 -1,740 Descending Atlanta TRACON
01:56PM 33.5500 -84.4333 90° East 275 316 8,700 -2,340 Descending Atlanta TRACON
01:57PM 33.5500 -84.3333 90° East 265 305 7,000 -1,980 Descending Atlanta TRACON
01:58PM 33.5500 -84.2667 90° East 258 297 5,000 -1,800 Descending Atlanta TRACON
01:59PM 33.5500 -84.1833 90° East 210 242 3,400 -960 Descending Atlanta TRACON
02:00PM 33.5833 -84.1667 23° Northeast 191 220 3,100 -180 Descending Atlanta TRACON
02:01PM 33.6167 -84.2167 309° West 174 200 3,100  Level Atlanta TRACON
02:02PM 33.6167 -84.2667 270° West 172 198 3,100 -300 Level Atlanta TRACON
02:03PM 33.6167 -84.3167 270° West 163 188 2,600 -600 Descending Atlanta TRACON
02:04PM 33.6167 -84.3667 270° West 139 160 1,900 -780 Descending Atlanta TRACON
02:05PM 33.6167 -84.4167 270° West 147 169 1,200 -780 Descending Atlanta TRACON
02:07PM 33.6333 -84.4167 292° West  Level FlightAware Approximate